Annville, Kentucky
Current Conditions -  °F | °C
As of 3:53 PM on Saturday 22 Nov 2014 (Local Time) from KLOZ Reporting Station
Clear Clear  
Wind Chill: 59°   Ceiling: Unl
Heat Index: 59°   Visibility: 10mi
Dew Point: 27°   Wind: 9mph
Humidity: 29%   Direction: 180°S
Pressure: 30.21"   Gusts: NA
Location:  37.32°N, 83.97°W
Report Text: KLOZ 222053Z AUTO 18008KT 10SM CLR 15/M03 A3021 RMK AO2 SLP233 T01501028 56029
Loading
Personal Weather Stations






























Interactive Weather Map New forecast layout! Learn more

10-Day Weather Forecast

Advertisements
Track Severe Weather on mobile